Hobucken, North Carolina
Current Conditions -  °F | °C
As of 1:56 PM on Thursday 23 Oct 2014 (Local Time) from KNBT Reporting Station
Clear Clear  
Wind Chill: 68°   Ceiling: Unl
Heat Index: 68°   Visibility: 8mi
Dew Point: 45°   Wind: 15mph
Humidity: 43%   Direction: 280°W
Pressure: 29.9"   Gusts: NA
Location:  35.25°N, 76.57°W
Report Text: KNBT 231756Z AUTO 28013KT 8SM CLR 20/07 A2990 RMK AO2 SLP128 6//// T02000072 10200 20122 58024 PNO
Loading
Personal Weather Stations






























Interactive Weather Map
Tropical Storm Tracking
New forecast layout! Learn more

10-Day Weather Forecast

Advertisements
Track Severe Weather on mobile